sensor_id;sensor_type;location;lat;lon;timestamp;temperature;humidity
13610;DHT22;6876;50.788;4.940;2023-05-07T00:02:38;14.90;99.90
13610;DHT22;6876;50.788;4.940;2023-05-07T00:05:26;14.90;99.90
13610;DHT22;6876;50.788;4.940;2023-05-07T00:08:15;14.80;99.90
13610;DHT22;6876;50.788;4.940;2023-05-07T00:11:02;14.90;99.90
13610;DHT22;6876;50.788;4.940;2023-05-07T00:13:50;14.90;99.90
13610;DHT22;6876;50.788;4.940;2023-05-07T00:16:38;14.90;99.90
13610;DHT22;6876;50.788;4.940;2023-05-07T00:19:25;15.00;99.90
13610;DHT22;6876;50.788;4.940;2023-05-07T00:22:12;14.80;99.90
13610;DHT22;6876;50.788;4.940;2023-05-07T00:25:01;14.80;99.90
13610;DHT22;6876;50.788;4.940;2023-05-07T00:27:48;14.80;99.90
13610;DHT22;6876;50.788;4.940;2023-05-07T00:30:36;14.80;99.90
13610;DHT22;6876;50.788;4.940;2023-05-07T00:33:23;14.90;99.90
13610;DHT22;6876;50.788;4.940;2023-05-07T00:36:12;14.90;99.90
13610;DHT22;6876;50.788;4.940;2023-05-07T00:39:00;15.00;99.90
13610;DHT22;6876;50.788;4.940;2023-05-07T00:41:50;15.00;99.90
13610;DHT22;6876;50.788;4.940;2023-05-07T00:44:38;15.00;99.90
13610;DHT22;6876;50.788;4.940;2023-05-07T00:47:25;15.10;99.90
13610;DHT22;6876;50.788;4.940;2023-05-07T00:50:13;15.20;99.90
13610;DHT22;6876;50.788;4.940;2023-05-07T00:53:00;15.10;99.90
13610;DHT22;6876;50.788;4.940;2023-05-07T00:55:48;15.20;99.90
13610;DHT22;6876;50.788;4.940;2023-05-07T00:58:37;15.10;99.90
13610;DHT22;6876;50.788;4.940;2023-05-07T01:01:24;14.90;99.90
13610;DHT22;6876;50.788;4.940;2023-05-07T01:04:12;14.80;99.90
13610;DHT22;6876;50.788;4.940;2023-05-07T01:07:00;14.60;99.90
13610;DHT22;6876;50.788;4.940;2023-05-07T01:09:48;14.50;99.90
13610;DHT22;6876;50.788;4.940;2023-05-07T01:12:38;14.50;99.90
13610;DHT22;6876;50.788;4.940;2023-05-07T01:15:28;14.40;99.90
13610;DHT22;6876;50.788;4.940;2023-05-07T01:18:15;14.30;99.90
13610;DHT22;6876;50.788;4.940;2023-05-07T01:21:04;14.20;99.90
13610;DHT22;6876;50.788;4.940;2023-05-07T01:23:54;14.20;99.90
13610;DHT22;6876;50.788;4.940;2023-05-07T01:26:42;14.30;99.90
13610;DHT22;6876;50.788;4.940;2023-05-07T01:29:30;14.60;99.90
13610;DHT22;6876;50.788;4.940;2023-05-07T01:32:20;14.70;99.90
13610;DHT22;6876;50.788;4.940;2023-05-07T01:35:11;14.80;99.90
13610;DHT22;6876;50.788;4.940;2023-05-07T01:37:58;14.80;99.90
13610;DHT22;6876;50.788;4.940;2023-05-07T01:40:48;14.80;99.90
13610;DHT22;6876;50.788;4.940;2023-05-07T01:43:35;14.90;99.90
13610;DHT22;6876;50.788;4.940;2023-05-07T01:46:23;14.80;99.90
13610;DHT22;6876;50.788;4.940;2023-05-07T01:49:11;14.70;99.90
13610;DHT22;6876;50.788;4.940;2023-05-07T01:51:59;14.60;99.90
13610;DHT22;6876;50.788;4.940;2023-05-07T01:54:46;14.80;99.90
13610;DHT22;6876;50.788;4.940;2023-05-07T01:57:35;14.80;99.90
13610;DHT22;6876;50.788;4.940;2023-05-07T02:00:23;14.80;99.90
13610;DHT22;6876;50.788;4.940;2023-05-07T02:03:10;14.80;99.90
13610;DHT22;6876;50.788;4.940;2023-05-07T02:05:58;14.80;99.90
13610;DHT22;6876;50.788;4.940;2023-05-07T02:08:45;14.70;99.90
13610;DHT22;6876;50.788;4.940;2023-05-07T02:11:32;14.70;99.90
13610;DHT22;6876;50.788;4.940;2023-05-07T02:14:21;14.70;99.90
13610;DHT22;6876;50.788;4.940;2023-05-07T02:17:09;14.60;99.90
13610;DHT22;6876;50.788;4.940;2023-05-07T02:19:56;14.80;99.90
13610;DHT22;6876;50.788;4.940;2023-05-07T02:22:43;14.80;99.90
13610;DHT22;6876;50.788;4.940;2023-05-07T02:25:30;14.80;99.90
13610;DHT22;6876;50.788;4.940;2023-05-07T02:28:18;14.80;99.90
13610;DHT22;6876;50.788;4.940;2023-05-07T02:31:06;14.80;99.90
13610;DHT22;6876;50.788;4.940;2023-05-07T02:33:54;14.70;99.90
13610;DHT22;6876;50.788;4.940;2023-05-07T02:36:41;14.60;99.90
13610;DHT22;6876;50.788;4.940;2023-05-07T02:39:28;14.70;99.90
13610;DHT22;6876;50.788;4.940;2023-05-07T02:42:16;14.70;99.90
13610;DHT22;6876;50.788;4.940;2023-05-07T02:45:04;14.70;99.90
13610;DHT22;6876;50.788;4.940;2023-05-07T02:47:53;14.70;99.90
13610;DHT22;6876;50.788;4.940;2023-05-07T02:50:41;14.60;99.90
13610;DHT22;6876;50.788;4.940;2023-05-07T02:53:28;14.50;99.90
13610;DHT22;6876;50.788;4.940;2023-05-07T02:56:15;14.40;99.90
13610;DHT22;6876;50.788;4.940;2023-05-07T02:59:03;14.40;99.90
13610;DHT22;6876;50.788;4.940;2023-05-07T03:01:50;14.50;99.90
13610;DHT22;6876;50.788;4.940;2023-05-07T03:04:39;14.50;99.90
13610;DHT22;6876;50.788;4.940;2023-05-07T03:07:27;14.50;99.90
13610;DHT22;6876;50.788;4.940;2023-05-07T03:10:15;14.50;99.90
13610;DHT22;6876;50.788;4.940;2023-05-07T03:13:02;14.50;99.90
13610;DHT22;6876;50.788;4.940;2023-05-07T03:15:50;14.50;99.90
13610;DHT22;6876;50.788;4.940;2023-05-07T03:18:37;14.50;99.90
13610;DHT22;6876;50.788;4.940;2023-05-07T03:21:26;14.50;99.90
13610;DHT22;6876;50.788;4.940;2023-05-07T03:24:13;14.50;99.90
13610;DHT22;6876;50.788;4.940;2023-05-07T03:27:00;14.40;99.90
13610;DHT22;6876;50.788;4.940;2023-05-07T03:29:48;14.40;99.90
13610;DHT22;6876;50.788;4.940;2023-05-07T03:32:35;14.40;99.90
13610;DHT22;6876;50.788;4.940;2023-05-07T03:35:23;14.40;99.90
13610;DHT22;6876;50.788;4.940;2023-05-07T03:38:11;14.40;99.90
13610;DHT22;6876;50.788;4.940;2023-05-07T03:40:59;14.40;99.90
13610;DHT22;6876;50.788;4.940;2023-05-07T03:43:46;14.30;99.90
13610;DHT22;6876;50.788;4.940;2023-05-07T03:46:33;14.20;99.90
13610;DHT22;6876;50.788;4.940;2023-05-07T03:49:21;14.10;99.90
13610;DHT22;6876;50.788;4.940;2023-05-07T03:52:08;14.10;99.90
13610;DHT22;6876;50.788;4.940;2023-05-07T03:54:57;14.20;99.90
13610;DHT22;6876;50.788;4.940;2023-05-07T03:57:44;14.30;99.90
13610;DHT22;6876;50.788;4.940;2023-05-07T04:00:31;14.30;99.90
13610;DHT22;6876;50.788;4.940;2023-05-07T04:03:20;14.30;99.90
13610;DHT22;6876;50.788;4.940;2023-05-07T04:06:07;14.20;99.90
13610;DHT22;6876;50.788;4.940;2023-05-07T04:08:54;14.20;99.90
13610;DHT22;6876;50.788;4.940;2023-05-07T04:11:43;14.20;99.90
13610;DHT22;6876;50.788;4.940;2023-05-07T04:14:30;14.30;99.90
13610;DHT22;6876;50.788;4.940;2023-05-07T04:17:18;14.20;99.90
13610;DHT22;6876;50.788;4.940;2023-05-07T04:20:06;14.20;99.90
13610;DHT22;6876;50.788;4.940;2023-05-07T04:22:54;14.10;99.90
13610;DHT22;6876;50.788;4.940;2023-05-07T04:25:41;14.10;99.90
13610;DHT22;6876;50.788;4.940;2023-05-07T04:28:30;14.10;99.90
13610;DHT22;6876;50.788;4.940;2023-05-07T04:31:17;14.00;99.90
13610;DHT22;6876;50.788;4.940;2023-05-07T04:34:04;14.00;99.90
13610;DHT22;6876;50.788;4.940;2023-05-07T04:36:52;14.00;99.90
13610;DHT22;6876;50.788;4.940;2023-05-07T04:39:39;13.90;99.90
13610;DHT22;6876;50.788;4.940;2023-05-07T04:42:26;13.90;99.90
13610;DHT22;6876;50.788;4.940;2023-05-07T04:45:15;14.00;99.90
13610;DHT22;6876;50.788;4.940;2023-05-07T04:48:03;14.00;99.90
13610;DHT22;6876;50.788;4.940;2023-05-07T04:50:50;14.10;99.90
13610;DHT22;6876;50.788;4.940;2023-05-07T04:53:38;14.20;99.90
13610;DHT22;6876;50.788;4.940;2023-05-07T04:56:27;14.20;99.90
13610;DHT22;6876;50.788;4.940;2023-05-07T04:59:15;14.20;99.90
13610;DHT22;6876;50.788;4.940;2023-05-07T05:02:04;14.40;99.90
13610;DHT22;6876;50.788;4.940;2023-05-07T05:04:51;14.50;99.90
13610;DHT22;6876;50.788;4.940;2023-05-07T05:07:39;14.60;99.90
13610;DHT22;6876;50.788;4.940;2023-05-07T05:10:26;14.60;99.90
13610;DHT22;6876;50.788;4.940;2023-05-07T05:13:13;14.60;99.90
13610;DHT22;6876;50.788;4.940;2023-05-07T05:16:01;14.70;99.90
13610;DHT22;6876;50.788;4.940;2023-05-07T05:18:49;14.80;99.90
13610;DHT22;6876;50.788;4.940;2023-05-07T05:21:38;15.10;99.90
13610;DHT22;6876;50.788;4.940;2023-05-07T05:24:25;15.20;99.90
13610;DHT22;6876;50.788;4.940;2023-05-07T05:27:12;15.30;99.90
13610;DHT22;6876;50.788;4.940;2023-05-07T05:30:00;15.60;99.90
13610;DHT22;6876;50.788;4.940;2023-05-07T05:32:47;15.80;99.90
13610;DHT22;6876;50.788;4.940;2023-05-07T05:35:36;15.90;99.90
13610;DHT22;6876;50.788;4.940;2023-05-07T05:38:23;16.00;99.90
13610;DHT22;6876;50.788;4.940;2023-05-07T05:41:10;16.10;99.90
13610;DHT22;6876;50.788;4.940;2023-05-07T05:43:57;16.20;99.90
13610;DHT22;6876;50.788;4.940;2023-05-07T05:46:45;16.40;99.90
13610;DHT22;6876;50.788;4.940;2023-05-07T05:49:32;16.50;99.90
13610;DHT22;6876;50.788;4.940;2023-05-07T05:52:21;16.60;99.90
13610;DHT22;6876;50.788;4.940;2023-05-07T05:55:09;16.50;99.90
13610;DHT22;6876;50.788;4.940;2023-05-07T05:57:57;16.50;99.90
13610;DHT22;6876;50.788;4.940;2023-05-07T06:00:45;16.60;99.90
13610;DHT22;6876;50.788;4.940;2023-05-07T06:03:34;16.90;99.90
13610;DHT22;6876;50.788;4.940;2023-05-07T06:06:21;17.20;99.90
13610;DHT22;6876;50.788;4.940;2023-05-07T06:09:10;17.30;99.90
13610;DHT22;6876;50.788;4.940;2023-05-07T06:11:57;17.20;99.90
13610;DHT22;6876;50.788;4.940;2023-05-07T06:14:44;17.20;99.90
13610;DHT22;6876;50.788;4.940;2023-05-07T06:17:32;17.10;99.90
13610;DHT22;6876;50.788;4.940;2023-05-07T06:20:19;16.90;99.90
13610;DHT22;6876;50.788;4.940;2023-05-07T06:23:06;17.00;99.90
13610;DHT22;6876;50.788;4.940;2023-05-07T06:25:55;17.00;99.90
13610;DHT22;6876;50.788;4.940;2023-05-07T06:28:42;17.10;99.90
13610;DHT22;6876;50.788;4.940;2023-05-07T06:31:30;17.10;99.90
13610;DHT22;6876;50.788;4.940;2023-05-07T06:34:18;17.10;99.90
13610;DHT22;6876;50.788;4.940;2023-05-07T06:37:06;17.20;99.90
13610;DHT22;6876;50.788;4.940;2023-05-07T06:39:54;17.30;99.90
13610;DHT22;6876;50.788;4.940;2023-05-07T06:42:42;17.40;99.90
13610;DHT22;6876;50.788;4.940;2023-05-07T06:45:30;17.40;99.90
13610;DHT22;6876;50.788;4.940;2023-05-07T06:48:17;17.50;99.90
13610;DHT22;6876;50.788;4.940;2023-05-07T06:51:05;17.50;99.90
13610;DHT22;6876;50.788;4.940;2023-05-07T06:53:52;17.60;99.90
13610;DHT22;6876;50.788;4.940;2023-05-07T06:56:39;17.60;99.90
13610;DHT22;6876;50.788;4.940;2023-05-07T06:59:29;17.80;99.90
13610;DHT22;6876;50.788;4.940;2023-05-07T07:02:16;17.70;99.90
13610;DHT22;6876;50.788;4.940;2023-05-07T07:05:05;17.70;99.90
13610;DHT22;6876;50.788;4.940;2023-05-07T07:07:53;17.60;99.90
13610;DHT22;6876;50.788;4.940;2023-05-07T07:10:40;17.60;99.90
13610;DHT22;6876;50.788;4.940;2023-05-07T07:13:28;17.60;99.90
13610;DHT22;6876;50.788;4.940;2023-05-07T07:16:17;17.60;99.90
13610;DHT22;6876;50.788;4.940;2023-05-07T07:19:04;17.60;99.90
13610;DHT22;6876;50.788;4.940;2023-05-07T07:21:51;17.80;99.90
13610;DHT22;6876;50.788;4.940;2023-05-07T07:24:39;18.00;99.90
13610;DHT22;6876;50.788;4.940;2023-05-07T07:27:26;18.10;99.90
13610;DHT22;6876;50.788;4.940;2023-05-07T07:30:13;18.10;99.90
13610;DHT22;6876;50.788;4.940;2023-05-07T07:33:02;18.10;99.90
13610;DHT22;6876;50.788;4.940;2023-05-07T07:35:49;18.30;99.90
13610;DHT22;6876;50.788;4.940;2023-05-07T07:38:37;18.40;99.90
13610;DHT22;6876;50.788;4.940;2023-05-07T07:41:24;18.40;99.90
13610;DHT22;6876;50.788;4.940;2023-05-07T07:44:11;18.60;99.90
13610;DHT22;6876;50.788;4.940;2023-05-07T07:46:59;18.70;99.90
13610;DHT22;6876;50.788;4.940;2023-05-07T07:49:48;18.80;99.90
13610;DHT22;6876;50.788;4.940;2023-05-07T07:52:35;19.00;99.90
13610;DHT22;6876;50.788;4.940;2023-05-07T07:55:23;19.20;99.90
13610;DHT22;6876;50.788;4.940;2023-05-07T07:58:10;19.60;99.90
13610;DHT22;6876;50.788;4.940;2023-05-07T08:00:57;19.90;99.90
13610;DHT22;6876;50.788;4.940;2023-05-07T08:03:45;20.40;99.90
13610;DHT22;6876;50.788;4.940;2023-05-07T08:06:33;21.00;99.90
13610;DHT22;6876;50.788;4.940;2023-05-07T08:09:21;21.40;99.90
13610;DHT22;6876;50.788;4.940;2023-05-07T08:12:08;21.80;99.90
13610;DHT22;6876;50.788;4.940;2023-05-07T08:14:55;22.00;99.90
13610;DHT22;6876;50.788;4.940;2023-05-07T08:17:43;22.20;99.90
13610;DHT22;6876;50.788;4.940;2023-05-07T08:20:31;22.00;99.90
13610;DHT22;6876;50.788;4.940;2023-05-07T08:23:19;21.80;99.90
13610;DHT22;6876;50.788;4.940;2023-05-07T08:26:09;21.60;99.90
13610;DHT22;6876;50.788;4.940;2023-05-07T08:28:56;21.30;99.90
13610;DHT22;6876;50.788;4.940;2023-05-07T08:31:43;21.30;99.90
13610;DHT22;6876;50.788;4.940;2023-05-07T08:34:30;21.20;99.90
13610;DHT22;6876;50.788;4.940;2023-05-07T08:37:18;21.20;99.90
13610;DHT22;6876;50.788;4.940;2023-05-07T08:40:08;21.20;99.90
13610;DHT22;6876;50.788;4.940;2023-05-07T08:42:56;21.10;99.90
13610;DHT22;6876;50.788;4.940;2023-05-07T08:45:45;20.90;99.90
13610;DHT22;6876;50.788;4.940;2023-05-07T08:48:32;20.70;99.90
13610;DHT22;6876;50.788;4.940;2023-05-07T08:51:21;20.30;99.90
13610;DHT22;6876;50.788;4.940;2023-05-07T08:54:09;19.90;99.90
13610;DHT22;6876;50.788;4.940;2023-05-07T08:56:59;19.80;99.90
13610;DHT22;6876;50.788;4.940;2023-05-07T08:59:46;19.80;99.90
13610;DHT22;6876;50.788;4.940;2023-05-07T09:02:35;19.70;99.90
13610;DHT22;6876;50.788;4.940;2023-05-07T09:05:23;19.80;99.90
13610;DHT22;6876;50.788;4.940;2023-05-07T09:08:13;19.80;4.50
13610;DHT22;6876;50.788;4.940;2023-05-07T09:11:02;19.80;65.10
13610;DHT22;6876;50.788;4.940;2023-05-07T09:13:53;19.60;1.00
13610;DHT22;6876;50.788;4.940;2023-05-07T09:16:41;19.50;1.00
13610;DHT22;6876;50.788;4.940;2023-05-07T09:19:28;19.40;1.00
13610;DHT22;6876;50.788;4.940;2023-05-07T09:22:16;19.20;1.00
13610;DHT22;6876;50.788;4.940;2023-05-07T09:25:05;19.30;1.00
13610;DHT22;6876;50.788;4.940;2023-05-07T09:27:53;19.20;1.00
13610;DHT22;6876;50.788;4.940;2023-05-07T09:30:41;18.90;1.00
13610;DHT22;6876;50.788;4.940;2023-05-07T09:33:31;18.90;1.00
13610;DHT22;6876;50.788;4.940;2023-05-07T09:36:18;19.10;1.00
13610;DHT22;6876;50.788;4.940;2023-05-07T09:39:05;18.90;1.00
13610;DHT22;6876;50.788;4.940;2023-05-07T09:41:53;18.70;1.00
13610;DHT22;6876;50.788;4.940;2023-05-07T09:44:41;18.60;1.00
13610;DHT22;6876;50.788;4.940;2023-05-07T09:47:32;18.60;1.00
13610;DHT22;6876;50.788;4.940;2023-05-07T09:50:28;18.60;1.00
13610;DHT22;6876;50.788;4.940;2023-05-07T09:53:17;18.40;1.00
13610;DHT22;6876;50.788;4.940;2023-05-07T09:56:05;18.50;1.00
13610;DHT22;6876;50.788;4.940;2023-05-07T09:58:54;18.50;1.00
13610;DHT22;6876;50.788;4.940;2023-05-07T10:01:44;18.30;1.00
13610;DHT22;6876;50.788;4.940;2023-05-07T10:04:34;18.40;1.00
13610;DHT22;6876;50.788;4.940;2023-05-07T10:07:21;18.40;1.00
13610;DHT22;6876;50.788;4.940;2023-05-07T10:10:09;18.40;99.90
13610;DHT22;6876;50.788;4.940;2023-05-07T10:12:57;18.50;99.90
13610;DHT22;6876;50.788;4.940;2023-05-07T10:15:45;18.50;99.90
13610;DHT22;6876;50.788;4.940;2023-05-07T10:18:34;18.60;99.90
13610;DHT22;6876;50.788;4.940;2023-05-07T10:21:23;18.50;99.90
13610;DHT22;6876;50.788;4.940;2023-05-07T10:24:19;18.50;99.90
13610;DHT22;6876;50.788;4.940;2023-05-07T10:27:10;18.50;99.90
13610;DHT22;6876;50.788;4.940;2023-05-07T10:30:07;18.60;99.90
13610;DHT22;6876;50.788;4.940;2023-05-07T10:33:03;18.50;99.90
13610;DHT22;6876;50.788;4.940;2023-05-07T10:35:55;18.70;99.90
13610;DHT22;6876;50.788;4.940;2023-05-07T10:38:46;18.70;99.90
13610;DHT22;6876;50.788;4.940;2023-05-07T10:41:33;18.70;99.90
13610;DHT22;6876;50.788;4.940;2023-05-07T10:44:27;18.80;99.90
13610;DHT22;6876;50.788;4.940;2023-05-07T10:47:16;18.90;99.90
13610;DHT22;6876;50.788;4.940;2023-05-07T10:50:23;19.00;99.90
13610;DHT22;6876;50.788;4.940;2023-05-07T10:53:24;18.90;99.90
13610;DHT22;6876;50.788;4.940;2023-05-07T10:56:29;18.90;99.90
13610;DHT22;6876;50.788;4.940;2023-05-07T10:59:35;18.80;99.90
13610;DHT22;6876;50.788;4.940;2023-05-07T11:05:44;19.20;99.90
13610;DHT22;6876;50.788;4.940;2023-05-07T11:08:54;19.30;99.90
13610;DHT22;6876;50.788;4.940;2023-05-07T11:11:46;19.20;99.90
13610;DHT22;6876;50.788;4.940;2023-05-07T11:14:43;19.20;99.90
13610;DHT22;6876;50.788;4.940;2023-05-07T11:17:32;19.50;99.90
13610;DHT22;6876;50.788;4.940;2023-05-07T11:20:20;19.50;99.90
13610;DHT22;6876;50.788;4.940;2023-05-07T11:23:08;19.20;99.90
13610;DHT22;6876;50.788;4.940;2023-05-07T11:25:58;19.10;99.90
13610;DHT22;6876;50.788;4.940;2023-05-07T11:28:48;19.10;99.90
13610;DHT22;6876;50.788;4.940;2023-05-07T11:31:35;19.10;99.90
13610;DHT22;6876;50.788;4.940;2023-05-07T11:34:25;19.10;99.90
13610;DHT22;6876;50.788;4.940;2023-05-07T11:37:17;19.00;99.90
13610;DHT22;6876;50.788;4.940;2023-05-07T11:40:05;19.00;99.90
13610;DHT22;6876;50.788;4.940;2023-05-07T11:42:53;18.90;99.90
13610;DHT22;6876;50.788;4.940;2023-05-07T11:45:42;19.00;99.90
13610;DHT22;6876;50.788;4.940;2023-05-07T11:48:29;19.10;99.90
13610;DHT22;6876;50.788;4.940;2023-05-07T11:51:21;19.10;99.90
13610;DHT22;6876;50.788;4.940;2023-05-07T11:54:10;19.00;99.90
13610;DHT22;6876;50.788;4.940;2023-05-07T11:56:59;18.90;99.90
13610;DHT22;6876;50.788;4.940;2023-05-07T11:59:47;19.00;99.90
13610;DHT22;6876;50.788;4.940;2023-05-07T12:02:35;18.90;99.90
13610;DHT22;6876;50.788;4.940;2023-05-07T12:05:23;19.00;99.90
13610;DHT22;6876;50.788;4.940;2023-05-07T12:08:13;19.00;99.90
13610;DHT22;6876;50.788;4.940;2023-05-07T12:11:01;19.10;99.90
13610;DHT22;6876;50.788;4.940;2023-05-07T12:13:48;19.20;99.90
13610;DHT22;6876;50.788;4.940;2023-05-07T12:16:35;19.40;99.90
13610;DHT22;6876;50.788;4.940;2023-05-07T12:19:24;19.40;99.90
13610;DHT22;6876;50.788;4.940;2023-05-07T12:22:12;19.50;99.90
13610;DHT22;6876;50.788;4.940;2023-05-07T12:25:00;19.50;99.90
13610;DHT22;6876;50.788;4.940;2023-05-07T12:27:51;19.30;99.90
13610;DHT22;6876;50.788;4.940;2023-05-07T12:30:39;19.40;99.90
13610;DHT22;6876;50.788;4.940;2023-05-07T12:33:26;19.40;99.90
13610;DHT22;6876;50.788;4.940;2023-05-07T12:36:18;19.60;99.90
13610;DHT22;6876;50.788;4.940;2023-05-07T12:39:07;19.50;99.90
13610;DHT22;6876;50.788;4.940;2023-05-07T12:41:55;19.40;99.90
13610;DHT22;6876;50.788;4.940;2023-05-07T12:44:45;19.50;99.90
13610;DHT22;6876;50.788;4.940;2023-05-07T12:47:33;19.60;99.90
13610;DHT22;6876;50.788;4.940;2023-05-07T12:50:20;19.70;99.90
13610;DHT22;6876;50.788;4.940;2023-05-07T12:53:11;19.60;99.90
13610;DHT22;6876;50.788;4.940;2023-05-07T12:55:59;19.60;99.90
13610;DHT22;6876;50.788;4.940;2023-05-07T12:58:48;19.60;99.90
13610;DHT22;6876;50.788;4.940;2023-05-07T13:01:36;19.60;99.90
13610;DHT22;6876;50.788;4.940;2023-05-07T13:04:24;19.80;99.90
13610;DHT22;6876;50.788;4.940;2023-05-07T13:07:12;19.80;99.90
13610;DHT22;6876;50.788;4.940;2023-05-07T13:10:00;19.90;99.90
13610;DHT22;6876;50.788;4.940;2023-05-07T13:12:48;19.90;99.90
13610;DHT22;6876;50.788;4.940;2023-05-07T13:15:35;19.90;99.90
13610;DHT22;6876;50.788;4.940;2023-05-07T13:18:24;19.90;99.90
13610;DHT22;6876;50.788;4.940;2023-05-07T13:21:12;19.80;99.90
13610;DHT22;6876;50.788;4.940;2023-05-07T13:24:00;19.80;99.90
13610;DHT22;6876;50.788;4.940;2023-05-07T13:26:48;19.80;20.70
13610;DHT22;6876;50.788;4.940;2023-05-07T13:29:37;19.90;12.90
13610;DHT22;6876;50.788;4.940;2023-05-07T13:32:24;19.80;1.00
13610;DHT22;6876;50.788;4.940;2023-05-07T13:35:12;19.90;1.00
13610;DHT22;6876;50.788;4.940;2023-05-07T13:37:59;20.00;1.00
13610;DHT22;6876;50.788;4.940;2023-05-07T13:40:46;20.00;1.00
13610;DHT22;6876;50.788;4.940;2023-05-07T13:43:35;20.10;1.00
13610;DHT22;6876;50.788;4.940;2023-05-07T13:46:22;20.20;1.00
13610;DHT22;6876;50.788;4.940;2023-05-07T13:49:09;20.20;1.00
13610;DHT22;6876;50.788;4.940;2023-05-07T13:51:58;20.20;1.00
13610;DHT22;6876;50.788;4.940;2023-05-07T13:54:45;20.20;1.00
13610;DHT22;6876;50.788;4.940;2023-05-07T13:57:32;20.20;1.00
13610;DHT22;6876;50.788;4.940;2023-05-07T14:00:21;20.30;1.00
13610;DHT22;6876;50.788;4.940;2023-05-07T14:03:08;20.50;1.00
13610;DHT22;6876;50.788;4.940;2023-05-07T14:05:56;20.40;1.00
13610;DHT22;6876;50.788;4.940;2023-05-07T14:08:43;20.20;1.00
13610;DHT22;6876;50.788;4.940;2023-05-07T14:11:31;20.20;1.00
13610;DHT22;6876;50.788;4.940;2023-05-07T14:14:18;20.30;1.00
13610;DHT22;6876;50.788;4.940;2023-05-07T14:17:07;20.40;1.00
13610;DHT22;6876;50.788;4.940;2023-05-07T14:19:54;20.30;1.00
13610;DHT22;6876;50.788;4.940;2023-05-07T14:22:42;20.20;1.00
13610;DHT22;6876;50.788;4.940;2023-05-07T14:25:29;20.20;1.00
13610;DHT22;6876;50.788;4.940;2023-05-07T14:28:16;20.30;1.00
13610;DHT22;6876;50.788;4.940;2023-05-07T14:31:03;20.30;1.00
13610;DHT22;6876;50.788;4.940;2023-05-07T14:33:53;20.10;1.00
13610;DHT22;6876;50.788;4.940;2023-05-07T14:36:40;20.00;1.00
13610;DHT22;6876;50.788;4.940;2023-05-07T14:39:28;20.10;1.00
13610;DHT22;6876;50.788;4.940;2023-05-07T14:42:16;20.00;1.00
13610;DHT22;6876;50.788;4.940;2023-05-07T14:45:04;19.80;1.00
13610;DHT22;6876;50.788;4.940;2023-05-07T14:47:51;19.70;1.00
13610;DHT22;6876;50.788;4.940;2023-05-07T14:50:40;19.60;1.00
13610;DHT22;6876;50.788;4.940;2023-05-07T14:53:27;19.70;1.00
13610;DHT22;6876;50.788;4.940;2023-05-07T14:56:14;19.80;1.00
13610;DHT22;6876;50.788;4.940;2023-05-07T14:59:03;19.80;1.00
13610;DHT22;6876;50.788;4.940;2023-05-07T15:01:50;19.90;1.00
13610;DHT22;6876;50.788;4.940;2023-05-07T15:04:38;20.00;1.00
13610;DHT22;6876;50.788;4.940;2023-05-07T15:07:27;20.00;1.00
13610;DHT22;6876;50.788;4.940;2023-05-07T15:10:15;20.10;1.00
13610;DHT22;6876;50.788;4.940;2023-05-07T15:13:02;20.10;1.00
13610;DHT22;6876;50.788;4.940;2023-05-07T15:15:49;20.10;1.00
13610;DHT22;6876;50.788;4.940;2023-05-07T15:18:37;20.00;1.00
13610;DHT22;6876;50.788;4.940;2023-05-07T15:21:24;20.00;1.00
13610;DHT22;6876;50.788;4.940;2023-05-07T15:24:14;20.00;1.00
13610;DHT22;6876;50.788;4.940;2023-05-07T15:27:01;20.10;1.00
13610;DHT22;6876;50.788;4.940;2023-05-07T15:29:49;20.10;1.00
13610;DHT22;6876;50.788;4.940;2023-05-07T15:32:37;20.10;1.00
13610;DHT22;6876;50.788;4.940;2023-05-07T15:35:25;20.00;1.00
13610;DHT22;6876;50.788;4.940;2023-05-07T15:38:13;20.20;1.00
13610;DHT22;6876;50.788;4.940;2023-05-07T15:41:02;20.20;1.00
13610;DHT22;6876;50.788;4.940;2023-05-07T15:43:51;20.20;1.00
13610;DHT22;6876;50.788;4.940;2023-05-07T15:46:39;20.20;1.00
13610;DHT22;6876;50.788;4.940;2023-05-07T15:49:26;20.30;1.00
13610;DHT22;6876;50.788;4.940;2023-05-07T15:52:14;20.30;1.00
13610;DHT22;6876;50.788;4.940;2023-05-07T15:55:02;20.30;1.00
13610;DHT22;6876;50.788;4.940;2023-05-07T15:57:52;20.20;1.00
13610;DHT22;6876;50.788;4.940;2023-05-07T16:00:40;20.20;1.00
13610;DHT22;6876;50.788;4.940;2023-05-07T16:03:28;20.20;1.00
13610;DHT22;6876;50.788;4.940;2023-05-07T16:06:16;20.10;1.00
13610;DHT22;6876;50.788;4.940;2023-05-07T16:09:03;20.10;1.00
13610;DHT22;6876;50.788;4.940;2023-05-07T16:11:50;20.20;1.00
13610;DHT22;6876;50.788;4.940;2023-05-07T16:14:41;20.30;1.00
13610;DHT22;6876;50.788;4.940;2023-05-07T16:17:28;20.30;1.00
13610;DHT22;6876;50.788;4.940;2023-05-07T16:20:16;20.30;1.00
13610;DHT22;6876;50.788;4.940;2023-05-07T16:23:06;20.30;1.00
13610;DHT22;6876;50.788;4.940;2023-05-07T16:25:53;20.00;1.00
13610;DHT22;6876;50.788;4.940;2023-05-07T16:28:42;20.10;1.00
13610;DHT22;6876;50.788;4.940;2023-05-07T16:31:31;20.20;1.00
13610;DHT22;6876;50.788;4.940;2023-05-07T16:34:18;20.10;1.00
13610;DHT22;6876;50.788;4.940;2023-05-07T16:37:06;20.10;1.00
13610;DHT22;6876;50.788;4.940;2023-05-07T16:39:54;20.10;1.00
13610;DHT22;6876;50.788;4.940;2023-05-07T16:42:42;20.00;1.00
13610;DHT22;6876;50.788;4.940;2023-05-07T16:45:29;20.00;1.00
13610;DHT22;6876;50.788;4.940;2023-05-07T16:48:18;19.90;1.00
13610;DHT22;6876;50.788;4.940;2023-05-07T16:51:06;19.90;1.00
13610;DHT22;6876;50.788;4.940;2023-05-07T16:53:54;19.80;1.00
13610;DHT22;6876;50.788;4.940;2023-05-07T16:56:41;19.70;1.00
13610;DHT22;6876;50.788;4.940;2023-05-07T16:59:28;19.80;1.00
13610;DHT22;6876;50.788;4.940;2023-05-07T17:02:18;19.80;1.00
13610;DHT22;6876;50.788;4.940;2023-05-07T17:05:08;19.70;1.00
13610;DHT22;6876;50.788;4.940;2023-05-07T17:07:55;19.60;1.00
13610;DHT22;6876;50.788;4.940;2023-05-07T17:10:42;19.60;1.00
13610;DHT22;6876;50.788;4.940;2023-05-07T17:13:31;19.50;1.00
13610;DHT22;6876;50.788;4.940;2023-05-07T17:16:18;19.40;1.00
13610;DHT22;6876;50.788;4.940;2023-05-07T17:19:05;19.40;1.00
13610;DHT22;6876;50.788;4.940;2023-05-07T17:21:54;19.40;1.00
13610;DHT22;6876;50.788;4.940;2023-05-07T17:24:41;19.30;1.00
13610;DHT22;6876;50.788;4.940;2023-05-07T17:27:29;19.30;1.00
13610;DHT22;6876;50.788;4.940;2023-05-07T17:30:17;19.30;1.00
13610;DHT22;6876;50.788;4.940;2023-05-07T17:33:04;19.20;1.00
13610;DHT22;6876;50.788;4.940;2023-05-07T17:35:52;19.20;1.00
13610;DHT22;6876;50.788;4.940;2023-05-07T17:38:42;19.00;1.00
13610;DHT22;6876;50.788;4.940;2023-05-07T17:41:29;19.00;1.00
13610;DHT22;6876;50.788;4.940;2023-05-07T17:44:16;18.90;1.00
13610;DHT22;6876;50.788;4.940;2023-05-07T17:47:05;19.00;1.00
13610;DHT22;6876;50.788;4.940;2023-05-07T17:49:53;19.00;1.00
13610;DHT22;6876;50.788;4.940;2023-05-07T17:52:40;19.10;1.00
13610;DHT22;6876;50.788;4.940;2023-05-07T17:55:29;19.00;1.00
13610;DHT22;6876;50.788;4.940;2023-05-07T17:58:18;19.00;1.00
13610;DHT22;6876;50.788;4.940;2023-05-07T18:01:06;18.90;1.00
13610;DHT22;6876;50.788;4.940;2023-05-07T18:03:54;18.90;1.00
13610;DHT22;6876;50.788;4.940;2023-05-07T18:06:41;18.80;1.00
13610;DHT22;6876;50.788;4.940;2023-05-07T18:09:29;18.80;1.00